sensor_id;sensor_type;location;lat;lon;timestamp;P1;durP1;ratioP1;P2;durP2;ratioP2
68250;SDS011;55066;51.560;4.642;2023-05-19T00:01:43;12.75;;;4.45;;
68250;SDS011;55066;51.560;4.642;2023-05-19T00:04:09;13.75;;;4.28;;
68250;SDS011;55066;51.560;4.642;2023-05-19T00:06:38;11.00;;;4.82;;
68250;SDS011;55066;51.560;4.642;2023-05-19T00:09:06;13.30;;;4.83;;
68250;SDS011;55066;51.560;4.642;2023-05-19T00:11:33;8.85;;;4.45;;
68250;SDS011;55066;51.560;4.642;2023-05-19T00:14:03;9.98;;;4.57;;
68250;SDS011;55066;51.560;4.642;2023-05-19T00:16:31;10.02;;;4.60;;
68250;SDS011;55066;51.560;4.642;2023-05-19T00:18:57;10.10;;;4.60;;
68250;SDS011;55066;51.560;4.642;2023-05-19T00:21:24;14.52;;;5.10;;
68250;SDS011;55066;51.560;4.642;2023-05-19T00:23:50;15.73;;;5.03;;
68250;SDS011;55066;51.560;4.642;2023-05-19T00:26:15;14.07;;;5.13;;
68250;SDS011;55066;51.560;4.642;2023-05-19T00:28:50;13.02;;;4.70;;
68250;SDS011;55066;51.560;4.642;2023-05-19T00:31:17;13.32;;;4.43;;
68250;SDS011;55066;51.560;4.642;2023-05-19T00:33:42;13.70;;;4.37;;
68250;SDS011;55066;51.560;4.642;2023-05-19T00:36:08;12.97;;;4.30;;
68250;SDS011;55066;51.560;4.642;2023-05-19T00:38:34;9.95;;;4.40;;
68250;SDS011;55066;51.560;4.642;2023-05-19T00:41:01;15.60;;;4.32;;
68250;SDS011;55066;51.560;4.642;2023-05-19T00:43:27;8.90;;;3.85;;
68250;SDS011;55066;51.560;4.642;2023-05-19T00:45:58;11.82;;;4.22;;
68250;SDS011;55066;51.560;4.642;2023-05-19T00:48:24;13.00;;;4.72;;
68250;SDS011;55066;51.560;4.642;2023-05-19T00:50:50;11.77;;;4.45;;
68250;SDS011;55066;51.560;4.642;2023-05-19T00:53:19;11.20;;;4.28;;
68250;SDS011;55066;51.560;4.642;2023-05-19T00:55:45;10.23;;;4.20;;
68250;SDS011;55066;51.560;4.642;2023-05-19T00:58:11;11.43;;;4.45;;
68250;SDS011;55066;51.560;4.642;2023-05-19T01:00:38;15.40;;;4.40;;
68250;SDS011;55066;51.560;4.642;2023-05-19T01:03:07;12.02;;;4.32;;
68250;SDS011;55066;51.560;4.642;2023-05-19T01:05:39;9.88;;;4.05;;
68250;SDS011;55066;51.560;4.642;2023-05-19T01:08:06;11.35;;;4.40;;
68250;SDS011;55066;51.560;4.642;2023-05-19T01:10:32;11.73;;;4.60;;
68250;SDS011;55066;51.560;4.642;2023-05-19T01:12:57;13.13;;;4.30;;
68250;SDS011;55066;51.560;4.642;2023-05-19T01:15:23;11.38;;;4.05;;
68250;SDS011;55066;51.560;4.642;2023-05-19T01:18:01;8.80;;;3.80;;
68250;SDS011;55066;51.560;4.642;2023-05-19T01:20:34;10.75;;;3.78;;
68250;SDS011;55066;51.560;4.642;2023-05-19T01:23:11;10.98;;;4.20;;
68250;SDS011;55066;51.560;4.642;2023-05-19T01:29:15;10.80;;;4.43;;
68250;SDS011;55066;51.560;4.642;2023-05-19T01:31:54;9.83;;;4.20;;
68250;SDS011;55066;51.560;4.642;2023-05-19T01:34:23;10.02;;;3.90;;
68250;SDS011;55066;51.560;4.642;2023-05-19T01:36:50;11.30;;;4.30;;
68250;SDS011;55066;51.560;4.642;2023-05-19T01:39:19;12.68;;;4.40;;
68250;SDS011;55066;51.560;4.642;2023-05-19T01:41:46;12.68;;;4.75;;
68250;SDS011;55066;51.560;4.642;2023-05-19T01:44:12;10.47;;;3.60;;
68250;SDS011;55066;51.560;4.642;2023-05-19T01:46:38;10.90;;;4.18;;
68250;SDS011;55066;51.560;4.642;2023-05-19T01:49:04;13.90;;;4.32;;
68250;SDS011;55066;51.560;4.642;2023-05-19T01:51:30;11.63;;;4.17;;
68250;SDS011;55066;51.560;4.642;2023-05-19T01:53:56;10.07;;;3.85;;
68250;SDS011;55066;51.560;4.642;2023-05-19T01:56:26;11.87;;;4.17;;
68250;SDS011;55066;51.560;4.642;2023-05-19T01:59:45;14.65;;;4.22;;
68250;SDS011;55066;51.560;4.642;2023-05-19T02:05:43;10.55;;;4.00;;
68250;SDS011;55066;51.560;4.642;2023-05-19T02:08:05;11.95;;;3.80;;
68250;SDS011;55066;51.560;4.642;2023-05-19T02:10:39;11.88;;;4.18;;
68250;SDS011;55066;51.560;4.642;2023-05-19T02:13:08;13.80;;;4.30;;
68250;SDS011;55066;51.560;4.642;2023-05-19T02:15:38;8.32;;;3.90;;
68250;SDS011;55066;51.560;4.642;2023-05-19T02:18:06;14.13;;;4.70;;
68250;SDS011;55066;51.560;4.642;2023-05-19T02:20:35;13.10;;;4.07;;
68250;SDS011;55066;51.560;4.642;2023-05-19T02:23:01;12.45;;;3.95;;
68250;SDS011;55066;51.560;4.642;2023-05-19T02:25:26;12.67;;;4.40;;
68250;SDS011;55066;51.560;4.642;2023-05-19T02:27:53;11.03;;;4.03;;
68250;SDS011;55066;51.560;4.642;2023-05-19T02:30:18;9.18;;;3.67;;
68250;SDS011;55066;51.560;4.642;2023-05-19T02:32:44;11.73;;;4.17;;
68250;SDS011;55066;51.560;4.642;2023-05-19T02:35:10;10.90;;;4.47;;
68250;SDS011;55066;51.560;4.642;2023-05-19T02:37:37;12.60;;;4.05;;
68250;SDS011;55066;51.560;4.642;2023-05-19T02:40:04;12.37;;;4.27;;
68250;SDS011;55066;51.560;4.642;2023-05-19T02:42:30;10.25;;;4.10;;
68250;SDS011;55066;51.560;4.642;2023-05-19T02:44:55;12.00;;;4.63;;
68250;SDS011;55066;51.560;4.642;2023-05-19T02:47:21;14.00;;;4.68;;
68250;SDS011;55066;51.560;4.642;2023-05-19T02:49:46;11.63;;;4.30;;
68250;SDS011;55066;51.560;4.642;2023-05-19T02:52:13;12.32;;;4.10;;
68250;SDS011;55066;51.560;4.642;2023-05-19T02:54:39;8.93;;;3.83;;
68250;SDS011;55066;51.560;4.642;2023-05-19T02:57:04;10.00;;;3.77;;
68250;SDS011;55066;51.560;4.642;2023-05-19T02:59:30;12.00;;;4.03;;
68250;SDS011;55066;51.560;4.642;2023-05-19T03:02:00;9.95;;;4.25;;
68250;SDS011;55066;51.560;4.642;2023-05-19T03:04:26;9.32;;;4.10;;
68250;SDS011;55066;51.560;4.642;2023-05-19T03:06:53;10.73;;;4.43;;
68250;SDS011;55066;51.560;4.642;2023-05-19T03:09:18;14.20;;;4.40;;
68250;SDS011;55066;51.560;4.642;2023-05-19T03:11:44;12.80;;;4.60;;
68250;SDS011;55066;51.560;4.642;2023-05-19T03:14:09;10.50;;;4.60;;
68250;SDS011;55066;51.560;4.642;2023-05-19T03:16:39;12.43;;;4.38;;
68250;SDS011;55066;51.560;4.642;2023-05-19T03:19:08;13.32;;;4.53;;
68250;SDS011;55066;51.560;4.642;2023-05-19T03:21:33;13.20;;;4.50;;
68250;SDS011;55066;51.560;4.642;2023-05-19T03:23:59;13.05;;;4.07;;
68250;SDS011;55066;51.560;4.642;2023-05-19T03:26:26;11.15;;;4.13;;
68250;SDS011;55066;51.560;4.642;2023-05-19T03:28:54;14.47;;;4.37;;
68250;SDS011;55066;51.560;4.642;2023-05-19T03:31:20;10.80;;;4.22;;
68250;SDS011;55066;51.560;4.642;2023-05-19T03:33:45;12.47;;;4.33;;
68250;SDS011;55066;51.560;4.642;2023-05-19T03:36:11;10.95;;;3.85;;
68250;SDS011;55066;51.560;4.642;2023-05-19T03:38:37;10.98;;;4.50;;
68250;SDS011;55066;51.560;4.642;2023-05-19T03:41:03;13.38;;;4.25;;
68250;SDS011;55066;51.560;4.642;2023-05-19T03:43:29;9.87;;;4.17;;
68250;SDS011;55066;51.560;4.642;2023-05-19T03:45:59;15.60;;;4.38;;
68250;SDS011;55066;51.560;4.642;2023-05-19T03:48:43;15.82;;;4.45;;
68250;SDS011;55066;51.560;4.642;2023-05-19T03:51:27;10.50;;;4.47;;
68250;SDS011;55066;51.560;4.642;2023-05-19T03:53:58;15.55;;;5.10;;
68250;SDS011;55066;51.560;4.642;2023-05-19T03:56:23;11.10;;;4.17;;
68250;SDS011;55066;51.560;4.642;2023-05-19T03:58:51;16.90;;;4.57;;
68250;SDS011;55066;51.560;4.642;2023-05-19T04:01:19;14.17;;;4.40;;
68250;SDS011;55066;51.560;4.642;2023-05-19T04:03:44;11.60;;;4.38;;
68250;SDS011;55066;51.560;4.642;2023-05-19T04:06:10;12.60;;;4.47;;
68250;SDS011;55066;51.560;4.642;2023-05-19T04:08:37;11.45;;;4.80;;
68250;SDS011;55066;51.560;4.642;2023-05-19T04:11:03;12.93;;;4.47;;
68250;SDS011;55066;51.560;4.642;2023-05-19T04:13:31;9.47;;;3.77;;
68250;SDS011;55066;51.560;4.642;2023-05-19T04:15:57;9.30;;;4.32;;
68250;SDS011;55066;51.560;4.642;2023-05-19T04:18:22;13.43;;;4.90;;
68250;SDS011;55066;51.560;4.642;2023-05-19T04:20:48;11.97;;;4.43;;
68250;SDS011;55066;51.560;4.642;2023-05-19T04:23:13;11.25;;;3.88;;
68250;SDS011;55066;51.560;4.642;2023-05-19T04:25:39;10.13;;;3.93;;
68250;SDS011;55066;51.560;4.642;2023-05-19T04:28:05;11.45;;;4.30;;
68250;SDS011;55066;51.560;4.642;2023-05-19T04:30:32;13.95;;;3.88;;
68250;SDS011;55066;51.560;4.642;2023-05-19T04:32:59;11.57;;;4.37;;
68250;SDS011;55066;51.560;4.642;2023-05-19T04:35:25;10.52;;;3.95;;
68250;SDS011;55066;51.560;4.642;2023-05-19T04:37:51;12.23;;;4.30;;
68250;SDS011;55066;51.560;4.642;2023-05-19T04:40:24;11.98;;;4.20;;
68250;SDS011;55066;51.560;4.642;2023-05-19T04:42:50;13.40;;;4.40;;
68250;SDS011;55066;51.560;4.642;2023-05-19T04:45:17;13.85;;;4.80;;
68250;SDS011;55066;51.560;4.642;2023-05-19T04:47:45;17.13;;;5.80;;
68250;SDS011;55066;51.560;4.642;2023-05-19T04:50:13;10.48;;;4.70;;
68250;SDS011;55066;51.560;4.642;2023-05-19T04:52:40;12.45;;;4.38;;
68250;SDS011;55066;51.560;4.642;2023-05-19T04:55:06;11.27;;;4.50;;
68250;SDS011;55066;51.560;4.642;2023-05-19T04:57:33;11.25;;;4.53;;
68250;SDS011;55066;51.560;4.642;2023-05-19T04:59:59;18.20;;;5.28;;
68250;SDS011;55066;51.560;4.642;2023-05-19T05:02:26;14.90;;;4.93;;
68250;SDS011;55066;51.560;4.642;2023-05-19T05:04:52;19.60;;;5.20;;
68250;SDS011;55066;51.560;4.642;2023-05-19T05:07:22;12.25;;;5.10;;
68250;SDS011;55066;51.560;4.642;2023-05-19T05:09:50;12.07;;;4.85;;
68250;SDS011;55066;51.560;4.642;2023-05-19T05:12:24;14.30;;;4.70;;
68250;SDS011;55066;51.560;4.642;2023-05-19T05:14:50;12.68;;;4.60;;
68250;SDS011;55066;51.560;4.642;2023-05-19T05:17:16;16.52;;;4.90;;
68250;SDS011;55066;51.560;4.642;2023-05-19T05:19:42;15.43;;;5.40;;
68250;SDS011;55066;51.560;4.642;2023-05-19T05:22:08;18.80;;;5.10;;
68250;SDS011;55066;51.560;4.642;2023-05-19T05:24:37;14.18;;;5.20;;
68250;SDS011;55066;51.560;4.642;2023-05-19T05:27:03;16.70;;;5.30;;
68250;SDS011;55066;51.560;4.642;2023-05-19T05:29:30;14.45;;;5.00;;
68250;SDS011;55066;51.560;4.642;2023-05-19T05:31:56;13.33;;;5.53;;
68250;SDS011;55066;51.560;4.642;2023-05-19T05:34:22;16.20;;;5.20;;
68250;SDS011;55066;51.560;4.642;2023-05-19T05:36:48;15.23;;;4.85;;
68250;SDS011;55066;51.560;4.642;2023-05-19T05:39:13;12.85;;;5.07;;
68250;SDS011;55066;51.560;4.642;2023-05-19T05:41:41;15.25;;;5.50;;
68250;SDS011;55066;51.560;4.642;2023-05-19T05:44:09;12.95;;;5.03;;
68250;SDS011;55066;51.560;4.642;2023-05-19T05:46:37;13.88;;;4.70;;
68250;SDS011;55066;51.560;4.642;2023-05-19T05:49:03;14.25;;;5.72;;
68250;SDS011;55066;51.560;4.642;2023-05-19T05:51:28;14.55;;;5.50;;
68250;SDS011;55066;51.560;4.642;2023-05-19T05:53:56;15.55;;;4.80;;
68250;SDS011;55066;51.560;4.642;2023-05-19T05:56:30;13.88;;;5.00;;
68250;SDS011;55066;51.560;4.642;2023-05-19T05:58:58;14.57;;;5.60;;
68250;SDS011;55066;51.560;4.642;2023-05-19T06:01:24;13.90;;;5.20;;
68250;SDS011;55066;51.560;4.642;2023-05-19T06:03:51;16.05;;;5.40;;
68250;SDS011;55066;51.560;4.642;2023-05-19T06:06:19;11.77;;;5.32;;
68250;SDS011;55066;51.560;4.642;2023-05-19T06:08:45;15.77;;;5.50;;
68250;SDS011;55066;51.560;4.642;2023-05-19T06:11:11;12.18;;;5.03;;
68250;SDS011;55066;51.560;4.642;2023-05-19T06:13:38;13.02;;;5.50;;
68250;SDS011;55066;51.560;4.642;2023-05-19T06:16:07;15.30;;;5.75;;
68250;SDS011;55066;51.560;4.642;2023-05-19T06:18:42;14.35;;;5.75;;
68250;SDS011;55066;51.560;4.642;2023-05-19T06:21:08;11.38;;;4.75;;
68250;SDS011;55066;51.560;4.642;2023-05-19T06:23:35;19.27;;;5.40;;
68250;SDS011;55066;51.560;4.642;2023-05-19T06:26:02;12.18;;;5.00;;
68250;SDS011;55066;51.560;4.642;2023-05-19T06:28:28;12.95;;;4.95;;
68250;SDS011;55066;51.560;4.642;2023-05-19T06:30:54;16.60;;;5.32;;
68250;SDS011;55066;51.560;4.642;2023-05-19T06:33:39;14.47;;;6.00;;
68250;SDS011;55066;51.560;4.642;2023-05-19T06:36:06;12.20;;;4.97;;
68250;SDS011;55066;51.560;4.642;2023-05-19T06:38:34;10.50;;;4.68;;
68250;SDS011;55066;51.560;4.642;2023-05-19T06:40:59;16.33;;;5.20;;
68250;SDS011;55066;51.560;4.642;2023-05-19T06:43:25;15.27;;;5.45;;
68250;SDS011;55066;51.560;4.642;2023-05-19T06:45:55;14.90;;;5.45;;
68250;SDS011;55066;51.560;4.642;2023-05-19T06:48:23;12.40;;;5.10;;
68250;SDS011;55066;51.560;4.642;2023-05-19T06:50:48;18.00;;;5.43;;
68250;SDS011;55066;51.560;4.642;2023-05-19T06:53:15;11.23;;;4.90;;
68250;SDS011;55066;51.560;4.642;2023-05-19T06:55:43;16.85;;;5.30;;
68250;SDS011;55066;51.560;4.642;2023-05-19T06:58:10;15.77;;;5.50;;
68250;SDS011;55066;51.560;4.642;2023-05-19T07:00:35;16.73;;;5.40;;
68250;SDS011;55066;51.560;4.642;2023-05-19T07:03:03;13.25;;;5.15;;
68250;SDS011;55066;51.560;4.642;2023-05-19T07:05:29;13.07;;;4.90;;
68250;SDS011;55066;51.560;4.642;2023-05-19T07:07:57;14.25;;;5.05;;
68250;SDS011;55066;51.560;4.642;2023-05-19T07:10:26;12.95;;;5.50;;
68250;SDS011;55066;51.560;4.642;2023-05-19T07:12:52;12.60;;;5.20;;
68250;SDS011;55066;51.560;4.642;2023-05-19T07:15:20;14.20;;;5.18;;
68250;SDS011;55066;51.560;4.642;2023-05-19T07:17:46;11.02;;;5.30;;
68250;SDS011;55066;51.560;4.642;2023-05-19T07:20:12;14.73;;;5.60;;
68250;SDS011;55066;51.560;4.642;2023-05-19T07:22:38;14.05;;;4.93;;
68250;SDS011;55066;51.560;4.642;2023-05-19T07:25:08;15.52;;;5.28;;
68250;SDS011;55066;51.560;4.642;2023-05-19T07:27:34;14.40;;;5.33;;
68250;SDS011;55066;51.560;4.642;2023-05-19T07:29:59;11.32;;;4.88;;
68250;SDS011;55066;51.560;4.642;2023-05-19T07:32:25;15.63;;;5.43;;
68250;SDS011;55066;51.560;4.642;2023-05-19T07:34:50;12.73;;;4.43;;
68250;SDS011;55066;51.560;4.642;2023-05-19T07:37:18;10.15;;;4.72;;
68250;SDS011;55066;51.560;4.642;2023-05-19T07:39:44;14.60;;;4.70;;
68250;SDS011;55066;51.560;4.642;2023-05-19T07:42:09;16.15;;;5.68;;
68250;SDS011;55066;51.560;4.642;2023-05-19T07:44:35;11.60;;;5.00;;
68250;SDS011;55066;51.560;4.642;2023-05-19T07:47:00;13.83;;;5.27;;
68250;SDS011;55066;51.560;4.642;2023-05-19T07:49:26;12.73;;;5.38;;
68250;SDS011;55066;51.560;4.642;2023-05-19T07:51:51;13.37;;;5.53;;
68250;SDS011;55066;51.560;4.642;2023-05-19T07:54:17;13.63;;;5.23;;
68250;SDS011;55066;51.560;4.642;2023-05-19T07:56:43;18.95;;;5.43;;
68250;SDS011;55066;51.560;4.642;2023-05-19T07:59:08;15.00;;;4.80;;
68250;SDS011;55066;51.560;4.642;2023-05-19T08:01:33;10.47;;;4.77;;
68250;SDS011;55066;51.560;4.642;2023-05-19T08:03:59;12.10;;;4.87;;
68250;SDS011;55066;51.560;4.642;2023-05-19T08:06:24;10.82;;;4.95;;
68250;SDS011;55066;51.560;4.642;2023-05-19T08:08:50;14.07;;;4.97;;
68250;SDS011;55066;51.560;4.642;2023-05-19T08:11:16;10.05;;;4.43;;
68250;SDS011;55066;51.560;4.642;2023-05-19T08:13:42;12.73;;;4.77;;
68250;SDS011;55066;51.560;4.642;2023-05-19T08:16:13;11.80;;;4.70;;
68250;SDS011;55066;51.560;4.642;2023-05-19T08:18:38;10.73;;;4.63;;
68250;SDS011;55066;51.560;4.642;2023-05-19T08:21:04;10.27;;;4.80;;
68250;SDS011;55066;51.560;4.642;2023-05-19T08:23:30;13.40;;;4.93;;
68250;SDS011;55066;51.560;4.642;2023-05-19T08:25:56;11.33;;;4.23;;
68250;SDS011;55066;51.560;4.642;2023-05-19T08:28:21;12.30;;;4.53;;
68250;SDS011;55066;51.560;4.642;2023-05-19T08:30:46;13.77;;;4.77;;
68250;SDS011;55066;51.560;4.642;2023-05-19T08:33:14;9.48;;;4.10;;
68250;SDS011;55066;51.560;4.642;2023-05-19T08:35:39;12.35;;;4.57;;
68250;SDS011;55066;51.560;4.642;2023-05-19T08:38:04;12.88;;;4.07;;
68250;SDS011;55066;51.560;4.642;2023-05-19T08:40:30;10.67;;;4.23;;
68250;SDS011;55066;51.560;4.642;2023-05-19T08:42:58;10.77;;;4.13;;
68250;SDS011;55066;51.560;4.642;2023-05-19T08:45:23;12.83;;;4.20;;
68250;SDS011;55066;51.560;4.642;2023-05-19T08:47:49;9.50;;;4.20;;
68250;SDS011;55066;51.560;4.642;2023-05-19T08:50:16;9.97;;;3.80;;
68250;SDS011;55066;51.560;4.642;2023-05-19T08:58:25;9.50;;;3.60;;
68250;SDS011;55066;51.560;4.642;2023-05-19T09:00:52;10.13;;;3.30;;
68250;SDS011;55066;51.560;4.642;2023-05-19T09:03:17;7.97;;;3.00;;
68250;SDS011;55066;51.560;4.642;2023-05-19T09:05:44;7.70;;;3.00;;
68250;SDS011;55066;51.560;4.642;2023-05-19T09:08:10;9.52;;;2.65;;
68250;SDS011;55066;51.560;4.642;2023-05-19T09:10:35;7.10;;;2.80;;
68250;SDS011;55066;51.560;4.642;2023-05-19T09:13:01;7.40;;;3.13;;
68250;SDS011;55066;51.560;4.642;2023-05-19T09:15:26;6.28;;;3.30;;
68250;SDS011;55066;51.560;4.642;2023-05-19T09:18:05;7.57;;;3.20;;
68250;SDS011;55066;51.560;4.642;2023-05-19T09:20:41;6.53;;;2.78;;
68250;SDS011;55066;51.560;4.642;2023-05-19T09:23:14;7.35;;;3.00;;
68250;SDS011;55066;51.560;4.642;2023-05-19T09:28:12;14.15;;;3.17;;
68250;SDS011;55066;51.560;4.642;2023-05-19T09:30:38;5.07;;;2.53;;
68250;SDS011;55066;51.560;4.642;2023-05-19T09:33:03;6.63;;;2.87;;
68250;SDS011;55066;51.560;4.642;2023-05-19T09:35:33;13.30;;;3.08;;
68250;SDS011;55066;51.560;4.642;2023-05-19T09:38:00;5.30;;;2.73;;
68250;SDS011;55066;51.560;4.642;2023-05-19T09:40:29;9.02;;;2.92;;
68250;SDS011;55066;51.560;4.642;2023-05-19T09:42:56;8.53;;;3.10;;
68250;SDS011;55066;51.560;4.642;2023-05-19T09:45:21;8.48;;;2.97;;
68250;SDS011;55066;51.560;4.642;2023-05-19T09:47:47;8.70;;;2.80;;
68250;SDS011;55066;51.560;4.642;2023-05-19T09:50:12;7.20;;;2.50;;
68250;SDS011;55066;51.560;4.642;2023-05-19T09:52:38;8.50;;;2.50;;
68250;SDS011;55066;51.560;4.642;2023-05-19T09:55:09;8.98;;;2.75;;
68250;SDS011;55066;51.560;4.642;2023-05-19T09:57:36;5.70;;;2.40;;
68250;SDS011;55066;51.560;4.642;2023-05-19T10:00:05;9.27;;;2.67;;
68250;SDS011;55066;51.560;4.642;2023-05-19T10:02:39;5.05;;;2.38;;
68250;SDS011;55066;51.560;4.642;2023-05-19T10:05:09;5.57;;;2.20;;
68250;SDS011;55066;51.560;4.642;2023-05-19T10:07:38;7.35;;;2.50;;
68250;SDS011;55066;51.560;4.642;2023-05-19T10:10:06;6.27;;;2.67;;
68250;SDS011;55066;51.560;4.642;2023-05-19T10:12:33;8.52;;;2.67;;
68250;SDS011;55066;51.560;4.642;2023-05-19T10:15:00;7.65;;;3.15;;
68250;SDS011;55066;51.560;4.642;2023-05-19T10:17:25;8.13;;;3.07;;
68250;SDS011;55066;51.560;4.642;2023-05-19T10:19:52;9.60;;;3.03;;
68250;SDS011;55066;51.560;4.642;2023-05-19T10:22:18;7.05;;;2.80;;
68250;SDS011;55066;51.560;4.642;2023-05-19T10:24:44;4.75;;;2.33;;
68250;SDS011;55066;51.560;4.642;2023-05-19T10:27:10;7.33;;;2.87;;
68250;SDS011;55066;51.560;4.642;2023-05-19T10:29:40;6.75;;;2.72;;
68250;SDS011;55066;51.560;4.642;2023-05-19T10:32:10;6.90;;;2.63;;
68250;SDS011;55066;51.560;4.642;2023-05-19T10:35:00;6.95;;;2.20;;
68250;SDS011;55066;51.560;4.642;2023-05-19T10:40:50;9.15;;;2.80;;
68250;SDS011;55066;51.560;4.642;2023-05-19T10:43:37;7.78;;;3.00;;
68250;SDS011;55066;51.560;4.642;2023-05-19T10:46:23;8.10;;;3.37;;
68250;SDS011;55066;51.560;4.642;2023-05-19T10:48:50;8.32;;;3.33;;
68250;SDS011;55066;51.560;4.642;2023-05-19T10:51:15;8.37;;;3.40;;
68250;SDS011;55066;51.560;4.642;2023-05-19T10:53:41;8.80;;;3.30;;
68250;SDS011;55066;51.560;4.642;2023-05-19T10:56:10;6.90;;;3.37;;
68250;SDS011;55066;51.560;4.642;2023-05-19T11:01:08;9.80;;;3.70;;
68250;SDS011;55066;51.560;4.642;2023-05-19T11:03:44;7.93;;;3.13;;
68250;SDS011;55066;51.560;4.642;2023-05-19T11:06:26;7.35;;;3.50;;
68250;SDS011;55066;51.560;4.642;2023-05-19T11:08:56;7.20;;;3.20;;
68250;SDS011;55066;51.560;4.642;2023-05-19T11:12:11;8.13;;;3.08;;
68250;SDS011;55066;51.560;4.642;2023-05-19T11:14:21;8.95;;;3.50;;
68250;SDS011;55066;51.560;4.642;2023-05-19T11:16:50;6.93;;;3.10;;
68250;SDS011;55066;51.560;4.642;2023-05-19T11:19:26;7.97;;;3.47;;
68250;SDS011;55066;51.560;4.642;2023-05-19T11:21:56;6.70;;;2.77;;
68250;SDS011;55066;51.560;4.642;2023-05-19T11:24:31;5.90;;;2.67;;
68250;SDS011;55066;51.560;4.642;2023-05-19T11:26:57;8.10;;;2.47;;
68250;SDS011;55066;51.560;4.642;2023-05-19T11:29:22;6.77;;;2.60;;
68250;SDS011;55066;51.560;4.642;2023-05-19T11:31:48;7.28;;;2.50;;
68250;SDS011;55066;51.560;4.642;2023-05-19T11:34:15;7.73;;;2.30;;
68250;SDS011;55066;51.560;4.642;2023-05-19T11:36:41;7.10;;;2.88;;
68250;SDS011;55066;51.560;4.642;2023-05-19T11:39:07;8.18;;;2.88;;
68250;SDS011;55066;51.560;4.642;2023-05-19T11:41:37;8.65;;;2.90;;
68250;SDS011;55066;51.560;4.642;2023-05-19T11:44:08;7.73;;;3.13;;
68250;SDS011;55066;51.560;4.642;2023-05-19T11:46:34;7.05;;;2.90;;
68250;SDS011;55066;51.560;4.642;2023-05-19T11:48:59;9.40;;;2.93;;
68250;SDS011;55066;51.560;4.642;2023-05-19T11:51:26;5.53;;;2.60;;
68250;SDS011;55066;51.560;4.642;2023-05-19T11:53:51;8.05;;;2.70;;
68250;SDS011;55066;51.560;4.642;2023-05-19T11:56:18;7.73;;;2.77;;
68250;SDS011;55066;51.560;4.642;2023-05-19T11:58:45;8.85;;;2.83;;
68250;SDS011;55066;51.560;4.642;2023-05-19T12:01:11;6.17;;;2.90;;
68250;SDS011;55066;51.560;4.642;2023-05-19T12:03:39;6.45;;;2.67;;
68250;SDS011;55066;51.560;4.642;2023-05-19T12:06:04;6.55;;;2.63;;
68250;SDS011;55066;51.560;4.642;2023-05-19T12:08:32;6.50;;;2.40;;
68250;SDS011;55066;51.560;4.642;2023-05-19T12:10:59;5.85;;;2.40;;
68250;SDS011;55066;51.560;4.642;2023-05-19T12:13:24;6.20;;;2.50;;
68250;SDS011;55066;51.560;4.642;2023-05-19T12:15:50;6.50;;;2.55;;
68250;SDS011;55066;51.560;4.642;2023-05-19T12:18:17;6.18;;;2.30;;
68250;SDS011;55066;51.560;4.642;2023-05-19T12:20:43;4.43;;;2.23;;
68250;SDS011;55066;51.560;4.642;2023-05-19T12:23:08;4.65;;;2.10;;
68250;SDS011;55066;51.560;4.642;2023-05-19T12:25:34;6.20;;;1.93;;
68250;SDS011;55066;51.560;4.642;2023-05-19T12:28:00;5.67;;;2.07;;
68250;SDS011;55066;51.560;4.642;2023-05-19T12:30:27;6.37;;;2.20;;
68250;SDS011;55066;51.560;4.642;2023-05-19T12:32:53;6.97;;;2.50;;
68250;SDS011;55066;51.560;4.642;2023-05-19T12:35:24;5.38;;;2.50;;
68250;SDS011;55066;51.560;4.642;2023-05-19T12:37:53;4.80;;;2.08;;
68250;SDS011;55066;51.560;4.642;2023-05-19T12:40:19;9.30;;;2.20;;
68250;SDS011;55066;51.560;4.642;2023-05-19T12:42:44;5.07;;;2.00;;
68250;SDS011;55066;51.560;4.642;2023-05-19T12:45:10;5.68;;;2.10;;
68250;SDS011;55066;51.560;4.642;2023-05-19T12:47:35;9.10;;;2.80;;
68250;SDS011;55066;51.560;4.642;2023-05-19T12:50:02;6.33;;;2.67;;
68250;SDS011;55066;51.560;4.642;2023-05-19T12:52:28;7.28;;;2.42;;
68250;SDS011;55066;51.560;4.642;2023-05-19T12:55:03;4.97;;;2.00;;
68250;SDS011;55066;51.560;4.642;2023-05-19T12:57:30;7.95;;;2.30;;
68250;SDS011;55066;51.560;4.642;2023-05-19T13:00:11;4.80;;;2.20;;
68250;SDS011;55066;51.560;4.642;2023-05-19T13:05:25;6.05;;;2.13;;
68250;SDS011;55066;51.560;4.642;2023-05-19T13:07:56;6.13;;;2.42;;
68250;SDS011;55066;51.560;4.642;2023-05-19T13:10:22;5.57;;;1.98;;
68250;SDS011;55066;51.560;4.642;2023-05-19T13:12:50;5.28;;;2.03;;
68250;SDS011;55066;51.560;4.642;2023-05-19T13:15:16;6.30;;;2.10;;
68250;SDS011;55066;51.560;4.642;2023-05-19T13:17:42;5.72;;;2.00;;
68250;SDS011;55066;51.560;4.642;2023-05-19T13:20:11;4.73;;;1.80;;
68250;SDS011;55066;51.560;4.642;2023-05-19T13:22:37;5.90;;;2.40;;
68250;SDS011;55066;51.560;4.642;2023-05-19T13:25:02;5.57;;;2.37;;
68250;SDS011;55066;51.560;4.642;2023-05-19T13:27:28;6.80;;;2.30;;
68250;SDS011;55066;51.560;4.642;2023-05-19T13:29:53;6.63;;;2.30;;
68250;SDS011;55066;51.560;4.642;2023-05-19T13:32:19;5.23;;;2.10;;
68250;SDS011;55066;51.560;4.642;2023-05-19T13:34:44;7.20;;;2.40;;
68250;SDS011;55066;51.560;4.642;2023-05-19T13:37:10;7.97;;;2.00;;
68250;SDS011;55066;51.560;4.642;2023-05-19T13:39:36;9.10;;;2.50;;
68250;SDS011;55066;51.560;4.642;2023-05-19T13:42:01;7.63;;;2.50;;
68250;SDS011;55066;51.560;4.642;2023-05-19T13:44:27;4.43;;;2.50;;
68250;SDS011;55066;51.560;4.642;2023-05-19T13:46:52;7.15;;;2.28;;
68250;SDS011;55066;51.560;4.642;2023-05-19T13:49:18;5.77;;;2.10;;
68250;SDS011;55066;51.560;4.642;2023-05-19T13:51:43;5.97;;;2.37;;
68250;SDS011;55066;51.560;4.642;2023-05-19T13:54:16;6.88;;;2.55;;
68250;SDS011;55066;51.560;4.642;2023-05-19T13:56:42;6.20;;;2.50;;
68250;SDS011;55066;51.560;4.642;2023-05-19T13:59:10;6.47;;;2.22;;
68250;SDS011;55066;51.560;4.642;2023-05-19T14:01:35;4.23;;;1.83;;
68250;SDS011;55066;51.560;4.642;2023-05-19T14:04:01;6.70;;;2.43;;
68250;SDS011;55066;51.560;4.642;2023-05-19T14:06:26;6.15;;;2.33;;
68250;SDS011;55066;51.560;4.642;2023-05-19T14:08:52;6.57;;;2.33;;
68250;SDS011;55066;51.560;4.642;2023-05-19T14:11:17;6.47;;;2.17;;
68250;SDS011;55066;51.560;4.642;2023-05-19T14:13:44;6.50;;;2.13;;
68250;SDS011;55066;51.560;4.642;2023-05-19T14:16:10;5.97;;;2.40;;
68250;SDS011;55066;51.560;4.642;2023-05-19T14:18:35;7.10;;;2.25;;
68250;SDS011;55066;51.560;4.642;2023-05-19T14:21:01;6.43;;;2.57;;
68250;SDS011;55066;51.560;4.642;2023-05-19T14:23:26;5.70;;;2.37;;
68250;SDS011;55066;51.560;4.642;2023-05-19T14:25:54;7.18;;;2.50;;
68250;SDS011;55066;51.560;4.642;2023-05-19T14:28:19;6.32;;;2.50;;
68250;SDS011;55066;51.560;4.642;2023-05-19T14:30:45;5.53;;;2.37;;
68250;SDS011;55066;51.560;4.642;2023-05-19T14:33:10;5.90;;;2.30;;
68250;SDS011;55066;51.560;4.642;2023-05-19T14:35:37;5.28;;;2.40;;
68250;SDS011;55066;51.560;4.642;2023-05-19T14:38:02;6.70;;;2.37;;
68250;SDS011;55066;51.560;4.642;2023-05-19T14:40:27;5.47;;;2.57;;
68250;SDS011;55066;51.560;4.642;2023-05-19T14:42:53;9.15;;;3.08;;
68250;SDS011;55066;51.560;4.642;2023-05-19T14:45:18;6.40;;;2.20;;
68250;SDS011;55066;51.560;4.642;2023-05-19T14:47:44;5.93;;;1.93;;
68250;SDS011;55066;51.560;4.642;2023-05-19T14:50:09;5.40;;;2.30;;
68250;SDS011;55066;51.560;4.642;2023-05-19T14:52:35;11.57;;;2.60;;
68250;SDS011;55066;51.560;4.642;2023-05-19T14:55:00;6.43;;;2.50;;
68250;SDS011;55066;51.560;4.642;2023-05-19T14:57:26;6.03;;;2.30;;
68250;SDS011;55066;51.560;4.642;2023-05-19T14:59:51;5.17;;;2.67;;
68250;SDS011;55066;51.560;4.642;2023-05-19T15:02:17;5.20;;;2.17;;
68250;SDS011;55066;51.560;4.642;2023-05-19T15:04:42;4.53;;;2.30;;
68250;SDS011;55066;51.560;4.642;2023-05-19T15:07:07;5.50;;;2.23;;